createdAt,value
2024-03-09T00:00:45.303Z,100.00
2024-03-09T00:03:15.184Z,100.00
2024-03-09T00:05:43.723Z,100.00
2024-03-09T00:08:13.668Z,100.00
2024-03-09T00:10:42.029Z,100.00
2024-03-09T00:13:12.633Z,100.00
2024-03-09T00:15:43.650Z,100.00
2024-03-09T00:18:11.941Z,100.00
2024-03-09T00:20:40.042Z,100.00
2024-03-09T00:23:11.032Z,100.00
2024-03-09T00:25:39.727Z,100.00
2024-03-09T00:28:08.604Z,100.00
2024-03-09T00:30:37.343Z,100.00
2024-03-09T00:33:08.546Z,100.00
2024-03-09T00:35:37.690Z,100.00
2024-03-09T00:38:06.816Z,100.00
2024-03-09T00:40:35.651Z,100.00
2024-03-09T00:43:06.555Z,100.00
2024-03-09T00:45:34.840Z,100.00
2024-03-09T00:48:05.628Z,100.00
2024-03-09T00:50:34.459Z,100.00
2024-03-09T00:53:02.879Z,100.00
2024-03-09T00:55:31.189Z,100.00
2024-03-09T00:57:59.336Z,100.00
2024-03-09T01:00:27.276Z,100.00
2024-03-09T01:02:55.517Z,100.00
2024-03-09T01:05:28.870Z,100.00
2024-03-09T01:07:58.379Z,100.00
2024-03-09T01:10:26.709Z,100.00
2024-03-09T01:12:54.840Z,100.00
2024-03-09T01:15:23.595Z,100.00
2024-03-09T01:17:51.786Z,100.00
2024-03-09T01:20:20.021Z,100.00
2024-03-09T01:22:48.268Z,100.00
2024-03-09T01:25:17.087Z,100.00
2024-03-09T01:27:46.092Z,100.00
2024-03-09T01:30:14.339Z,100.00
2024-03-09T01:32:42.412Z,100.00
2024-03-09T01:35:11.372Z,100.00
2024-03-09T01:37:39.542Z,100.00
2024-03-09T01:40:09.232Z,100.00
2024-03-09T01:42:37.325Z,100.00
2024-03-09T01:45:09.090Z,100.00
2024-03-09T01:47:38.733Z,100.00
2024-03-09T01:50:15.168Z,100.00
2024-03-09T01:52:50.244Z,100.00
2024-03-09T01:55:20.644Z,100.00
2024-03-09T01:57:48.898Z,100.00
2024-03-09T02:00:19.280Z,100.00
2024-03-09T02:02:47.431Z,100.00
2024-03-09T02:05:15.803Z,100.00
2024-03-09T02:07:47.147Z,100.00
2024-03-09T02:10:15.574Z,100.00
2024-03-09T02:12:46.471Z,100.00
2024-03-09T02:15:18.599Z,100.00
2024-03-09T02:17:49.760Z,100.00
2024-03-09T02:20:19.817Z,100.00
2024-03-09T02:22:49.246Z,100.00
2024-03-09T02:25:19.024Z,100.00
2024-03-09T02:27:47.146Z,100.00
2024-03-09T02:30:15.827Z,100.00
2024-03-09T02:32:44.651Z,100.00
2024-03-09T02:35:13.372Z,100.00
2024-03-09T02:37:42.060Z,100.00
2024-03-09T02:40:13.869Z,100.00
2024-03-09T02:43:04.952Z,100.00
2024-03-09T02:45:34.258Z,100.00
2024-03-09T02:48:02.928Z,100.00
2024-03-09T02:50:30.965Z,100.00
2024-03-09T02:52:59.594Z,100.00
2024-03-09T02:55:28.986Z,100.00
2024-03-09T02:57:57.984Z,100.00
2024-03-09T03:00:28.534Z,100.00
2024-03-09T03:03:15.484Z,100.00
2024-03-09T03:05:46.129Z,100.00
2024-03-09T03:08:15.222Z,100.00
2024-03-09T03:10:43.454Z,100.00
2024-03-09T03:13:12.086Z,100.00
2024-03-09T03:15:40.339Z,100.00
2024-03-09T03:18:12.242Z,100.00
2024-03-09T03:20:40.511Z,100.00
2024-03-09T03:23:08.957Z,100.00
2024-03-09T03:25:37.566Z,100.00
2024-03-09T03:28:09.184Z,100.00
2024-03-09T03:30:39.050Z,100.00
2024-03-09T03:33:07.921Z,100.00
2024-03-09T03:35:35.947Z,100.00
2024-03-09T03:38:04.629Z,100.00
2024-03-09T03:40:32.999Z,100.00
2024-03-09T03:43:01.004Z,100.00
2024-03-09T03:45:29.107Z,100.00
2024-03-09T03:47:57.094Z,100.00
2024-03-09T03:50:25.342Z,100.00
2024-03-09T03:52:53.364Z,100.00
2024-03-09T03:55:22.261Z,100.00
2024-03-09T03:57:52.250Z,100.00
2024-03-09T04:00:22.697Z,100.00
2024-03-09T04:02:52.210Z,100.00
2024-03-09T04:05:20.138Z,100.00
2024-03-09T04:07:50.394Z,100.00
2024-03-09T04:10:20.532Z,100.00
2024-03-09T04:12:48.794Z,100.00
2024-03-09T04:15:16.906Z,100.00
2024-03-09T04:17:45.365Z,100.00
2024-03-09T04:20:18.206Z,100.00
2024-03-09T04:22:52.256Z,100.00
2024-03-09T04:25:21.493Z,100.00
2024-03-09T04:27:52.225Z,100.00
2024-03-09T04:30:20.250Z,100.00
2024-03-09T04:32:48.421Z,100.00
2024-03-09T04:35:16.854Z,100.00
2024-03-09T04:37:46.712Z,100.00
2024-03-09T04:40:17.366Z,100.00
2024-03-09T04:42:48.836Z,100.00
2024-03-09T04:45:21.612Z,100.00
2024-03-09T04:47:49.640Z,100.00
2024-03-09T04:50:21.289Z,100.00
2024-03-09T04:52:52.091Z,100.00
2024-03-09T04:55:23.966Z,100.00
2024-03-09T04:57:53.880Z,100.00
2024-03-09T05:00:23.445Z,100.00
2024-03-09T05:02:51.873Z,100.00
2024-03-09T05:05:20.925Z,100.00
2024-03-09T05:07:53.582Z,100.00
2024-03-09T05:10:22.148Z,100.00
2024-03-09T05:12:56.733Z,100.00
2024-03-09T05:15:26.815Z,100.00
2024-03-09T05:18:00.594Z,100.00
2024-03-09T05:20:30.602Z,100.00
2024-03-09T05:23:12.972Z,100.00
2024-03-09T05:25:44.697Z,100.00
2024-03-09T05:28:16.570Z,100.00
2024-03-09T05:30:45.766Z,100.00
2024-03-09T05:33:15.876Z,100.00
2024-03-09T05:35:44.135Z,100.00
2024-03-09T05:38:12.449Z,100.00
2024-03-09T05:40:41.668Z,100.00
2024-03-09T05:43:11.324Z,100.00
2024-03-09T05:45:40.155Z,100.00
2024-03-09T05:48:10.577Z,100.00
2024-03-09T05:50:40.075Z,100.00
2024-03-09T05:53:08.309Z,100.00
2024-03-09T05:55:36.899Z,100.00
2024-03-09T05:58:04.975Z,100.00
2024-03-09T06:00:33.398Z,100.00
2024-03-09T06:03:05.791Z,100.00
2024-03-09T06:05:35.459Z,100.00
2024-03-09T06:08:04.348Z,100.00
2024-03-09T06:10:36.288Z,100.00
2024-03-09T06:13:07.302Z,100.00
2024-03-09T06:15:35.489Z,100.00
2024-03-09T06:18:03.551Z,100.00
2024-03-09T06:20:34.150Z,100.00
2024-03-09T06:23:02.296Z,100.00
2024-03-09T06:25:31.837Z,100.00
2024-03-09T06:28:05.020Z,100.00
2024-03-09T06:30:33.930Z,100.00
2024-03-09T06:33:03.720Z,100.00
2024-03-09T06:35:34.346Z,100.00
2024-03-09T06:38:12.282Z,100.00
2024-03-09T06:40:43.436Z,100.00
2024-03-09T06:43:12.712Z,100.00
2024-03-09T06:45:43.794Z,100.00
2024-03-09T06:48:11.728Z,100.00
2024-03-09T06:50:48.963Z,100.00
2024-03-09T06:53:17.643Z,100.00
2024-03-09T06:55:45.617Z,100.00
2024-03-09T06:58:13.578Z,100.00
2024-03-09T07:00:42.704Z,100.00
2024-03-09T07:03:10.968Z,100.00
2024-03-09T07:05:41.123Z,100.00
2024-03-09T07:08:12.090Z,100.00
2024-03-09T07:10:40.530Z,100.00
2024-03-09T07:13:08.498Z,100.00
2024-03-09T07:15:38.516Z,100.00
2024-03-09T07:18:12.446Z,100.00
2024-03-09T07:20:41.382Z,100.00
2024-03-09T07:23:10.258Z,100.00
2024-03-09T07:25:38.361Z,100.00
2024-03-09T07:28:07.055Z,100.00
2024-03-09T07:30:35.104Z,100.00
2024-03-09T07:33:03.503Z,100.00
2024-03-09T07:35:31.854Z,100.00
2024-03-09T07:38:03.326Z,100.00
2024-03-09T07:40:33.473Z,100.00
2024-03-09T07:43:02.101Z,100.00
2024-03-09T07:45:31.977Z,100.00
2024-03-09T07:48:01.198Z,100.00
2024-03-09T07:50:29.824Z,100.00
2024-03-09T07:52:59.068Z,100.00
2024-03-09T07:55:29.835Z,100.00
2024-03-09T07:58:12.866Z,100.00
2024-03-09T08:00:47.427Z,100.00
2024-03-09T08:03:15.974Z,100.00
2024-03-09T08:05:44.351Z,100.00
2024-03-09T08:08:14.966Z,100.00
2024-03-09T08:10:49.747Z,100.00
2024-03-09T08:13:21.568Z,100.00
2024-03-09T08:15:49.631Z,100.00
2024-03-09T08:18:17.664Z,100.00
2024-03-09T08:20:46.230Z,100.00
2024-03-09T08:23:14.779Z,100.00
2024-03-09T08:25:43.983Z,100.00
2024-03-09T08:28:12.007Z,100.00
2024-03-09T08:30:39.956Z,100.00
2024-03-09T08:33:07.888Z,100.00
2024-03-09T08:35:36.243Z,100.00
2024-03-09T08:38:05.110Z,100.00
2024-03-09T08:40:33.411Z,100.00
2024-03-09T08:43:01.526Z,100.00
2024-03-09T08:45:31.093Z,100.00
2024-03-09T08:47:59.279Z,100.00
2024-03-09T08:50:27.585Z,100.00
2024-03-09T08:52:57.631Z,100.00
2024-03-09T08:55:25.846Z,100.00
2024-03-09T08:57:53.747Z,100.00
2024-03-09T09:00:22.314Z,100.00
2024-03-09T09:02:50.777Z,100.00
2024-03-09T09:05:20.483Z,100.00
2024-03-09T09:07:48.920Z,100.00
2024-03-09T09:10:18.577Z,100.00
2024-03-09T09:12:48.182Z,100.00
2024-03-09T09:15:19.154Z,100.00
2024-03-09T09:17:47.738Z,100.00
2024-03-09T09:20:16.996Z,100.00
2024-03-09T09:22:49.642Z,100.00
2024-03-09T09:25:21.228Z,100.00
2024-03-09T09:27:49.208Z,100.00
2024-03-09T09:30:17.155Z,100.00
2024-03-09T09:32:45.608Z,100.00
2024-03-09T09:35:18.059Z,100.00
2024-03-09T09:37:46.177Z,100.00
2024-03-09T09:40:15.193Z,100.00
2024-03-09T09:42:45.551Z,100.00
2024-03-09T09:45:23.776Z,100.00
2024-03-09T09:47:52.154Z,100.00
2024-03-09T09:50:20.558Z,100.00
2024-03-09T09:52:52.224Z,100.00
2024-03-09T09:55:23.910Z,100.00
2024-03-09T09:57:53.895Z,100.00
2024-03-09T10:00:25.735Z,100.00
2024-03-09T10:03:00.250Z,100.00
2024-03-09T10:05:31.118Z,100.00
2024-03-09T10:08:13.908Z,100.00
2024-03-09T10:10:50.032Z,100.00
2024-03-09T10:13:19.125Z,100.00
2024-03-09T10:15:51.218Z,100.00
2024-03-09T10:18:21.501Z,100.00
2024-03-09T10:20:51.968Z,100.00
2024-03-09T10:23:21.391Z,100.00
2024-03-09T10:25:49.873Z,100.00
2024-03-09T10:28:18.565Z,100.00
2024-03-09T10:30:46.586Z,100.00
2024-03-09T10:33:18.588Z,100.00
2024-03-09T10:35:54.607Z,100.00
2024-03-09T10:38:24.534Z,100.00
2024-03-09T10:40:54.221Z,100.00
2024-03-09T10:43:23.338Z,100.00
2024-03-09T10:45:57.044Z,100.00
2024-03-09T10:48:28.521Z,100.00
2024-03-09T10:51:05.642Z,100.00
2024-03-09T10:53:51.722Z,100.00
2024-03-09T10:56:24.820Z,100.00
2024-03-09T10:58:53.338Z,100.00
2024-03-09T11:01:25.411Z,100.00
2024-03-09T11:03:54.205Z,100.00
2024-03-09T11:06:23.904Z,100.00
2024-03-09T11:08:55.298Z,100.00
2024-03-09T11:11:25.766Z,100.00
2024-03-09T11:13:55.340Z,100.00
2024-03-09T11:16:25.882Z,100.00
2024-03-09T11:18:58.218Z,100.00
2024-03-09T11:21:36.570Z,100.00
2024-03-09T11:24:09.159Z,100.00
2024-03-09T11:26:43.717Z,100.00
2024-03-09T11:29:12.536Z,100.00
2024-03-09T11:31:43.960Z,100.00
2024-03-09T11:34:28.264Z,100.00
2024-03-09T11:36:58.911Z,100.00
2024-03-09T11:39:30.912Z,100.00
2024-03-09T11:42:17.804Z,100.00
2024-03-09T11:44:45.797Z,100.00
2024-03-09T11:47:13.906Z,100.00
2024-03-09T11:49:42.295Z,100.00
2024-03-09T11:52:13.685Z,100.00
2024-03-09T11:54:45.467Z,100.00
2024-03-09T11:57:13.532Z,100.00
2024-03-09T11:59:41.504Z,100.00
2024-03-09T12:02:10.142Z,100.00
2024-03-09T12:04:38.714Z,100.00
2024-03-09T12:07:10.885Z,100.00
2024-03-09T12:09:39.636Z,100.00
2024-03-09T12:12:17.411Z,100.00
2024-03-09T12:14:46.118Z,100.00
2024-03-09T12:17:14.634Z,100.00
2024-03-09T12:19:44.170Z,100.00
2024-03-09T12:22:12.815Z,100.00
2024-03-09T12:24:41.627Z,100.00
2024-03-09T12:27:12.657Z,100.00
2024-03-09T12:29:41.195Z,100.00
2024-03-09T12:32:10.209Z,100.00
2024-03-09T12:34:39.660Z,100.00
2024-03-09T12:37:07.747Z,100.00
2024-03-09T12:39:40.262Z,100.00
2024-03-09T12:42:10.999Z,100.00
2024-03-09T12:44:39.879Z,100.00
2024-03-09T12:47:08.654Z,100.00
2024-03-09T12:49:37.583Z,100.00
2024-03-09T12:52:07.080Z,100.00
2024-03-09T12:54:34.983Z,100.00
2024-03-09T12:57:05.880Z,100.00
2024-03-09T12:59:34.064Z,100.00
2024-03-09T13:02:02.878Z,100.00
2024-03-09T13:04:30.924Z,100.00
2024-03-09T13:07:00.091Z,100.00
2024-03-09T13:09:37.589Z,100.00
2024-03-09T13:12:06.646Z,100.00
2024-03-09T13:14:38.981Z,100.00
2024-03-09T13:17:08.439Z,100.00
2024-03-09T13:19:38.554Z,100.00
2024-03-09T13:22:08.395Z,100.00
2024-03-09T13:24:36.352Z,100.00
2024-03-09T13:27:04.506Z,100.00
2024-03-09T13:29:32.895Z,100.00
2024-03-09T13:32:01.201Z,100.00
2024-03-09T13:34:32.592Z,100.00
2024-03-09T13:37:01.677Z,100.00
2024-03-09T13:39:36.855Z,100.00
2024-03-09T13:42:11.102Z,100.00
2024-03-09T13:44:39.813Z,100.00
2024-03-09T13:47:13.654Z,100.00
2024-03-09T13:49:41.951Z,99.58
2024-03-09T13:52:11.858Z,99.36
2024-03-09T13:54:39.959Z,100.00
2024-03-09T13:57:07.851Z,98.84
2024-03-09T13:59:37.082Z,95.79
2024-03-09T14:02:10.256Z,98.70
2024-03-09T14:04:38.417Z,99.38
2024-03-09T14:07:09.280Z,99.35
2024-03-09T14:09:56.041Z,93.65
2024-03-09T14:12:24.509Z,92.61
2024-03-09T14:14:54.847Z,93.39
2024-03-09T14:17:23.737Z,91.75
2024-03-09T14:19:54.795Z,94.79
2024-03-09T14:22:28.535Z,95.52
2024-03-09T14:24:58.560Z,92.07
2024-03-09T14:27:27.221Z,92.64
2024-03-09T14:29:55.932Z,89.22
2024-03-09T14:32:24.596Z,87.47
2024-03-09T14:34:52.777Z,85.56
2024-03-09T14:37:20.888Z,87.63
2024-03-09T14:39:48.881Z,86.29
2024-03-09T14:42:19.708Z,84.09
2024-03-09T14:44:47.650Z,86.81
2024-03-09T14:47:15.813Z,88.19
2024-03-09T14:49:44.361Z,89.78
2024-03-09T14:52:14.675Z,83.71
2024-03-09T14:54:43.481Z,86.04
2024-03-09T14:57:11.765Z,82.91
2024-03-09T14:59:40.118Z,81.00
2024-03-09T15:02:09.230Z,80.38
2024-03-09T15:04:37.878Z,77.92
2024-03-09T15:07:07.813Z,69.28
2024-03-09T15:09:36.124Z,66.27
2024-03-09T15:12:09.846Z,71.25
2024-03-09T15:14:37.982Z,69.79
2024-03-09T15:17:11.345Z,73.73
2024-03-09T15:19:39.406Z,64.38
2024-03-09T15:22:07.416Z,61.00
2024-03-09T15:24:35.434Z,59.45
2024-03-09T15:27:04.920Z,63.82
2024-03-09T15:29:33.349Z,62.83
2024-03-09T15:32:04.876Z,60.05
2024-03-09T15:34:33.126Z,66.71
2024-03-09T15:37:01.103Z,61.42
2024-03-09T15:39:29.307Z,62.08
2024-03-09T15:42:00.023Z,59.02
2024-03-09T15:44:29.425Z,62.01
2024-03-09T15:46:57.430Z,66.05
2024-03-09T15:49:25.501Z,65.09
2024-03-09T15:51:55.872Z,63.58
2024-03-09T15:54:26.448Z,65.94
2024-03-09T15:56:54.326Z,66.96
2024-03-09T15:59:22.430Z,61.91
2024-03-09T16:01:50.542Z,60.09
2024-03-09T16:04:18.512Z,60.54
2024-03-09T16:06:48.677Z,60.04
2024-03-09T16:09:16.648Z,59.77
2024-03-09T16:11:44.915Z,58.46
2024-03-09T16:14:15.778Z,57.97
2024-03-09T16:16:43.804Z,58.05
2024-03-09T16:19:11.677Z,59.51
2024-03-09T16:21:40.891Z,60.52
2024-03-09T16:24:09.323Z,60.40
2024-03-09T16:26:37.564Z,59.69
2024-03-09T16:29:05.921Z,59.03
2024-03-09T16:31:37.373Z,56.93
2024-03-09T16:34:08.687Z,56.08
2024-03-09T16:36:36.861Z,55.49
2024-03-09T16:39:10.309Z,55.09
2024-03-09T16:41:39.992Z,53.77
2024-03-09T16:44:08.018Z,51.76
2024-03-09T16:46:36.195Z,51.59
2024-03-09T16:49:07.173Z,51.75
2024-03-09T16:51:35.849Z,49.80
2024-03-09T16:54:08.669Z,49.17
2024-03-09T16:56:38.166Z,50.34
2024-03-09T16:59:09.515Z,49.39
2024-03-09T17:01:44.953Z,48.41
2024-03-09T17:04:17.053Z,48.61
2024-03-09T17:06:45.130Z,48.82
2024-03-09T17:09:13.150Z,47.99
2024-03-09T17:11:42.108Z,47.82
2024-03-09T17:14:10.158Z,49.50
2024-03-09T17:16:40.427Z,50.59
2024-03-09T17:19:12.843Z,50.56
2024-03-09T17:21:41.993Z,49.97
2024-03-09T17:24:10.985Z,49.05
2024-03-09T17:26:41.263Z,48.51
2024-03-09T17:29:09.347Z,47.65
2024-03-09T17:31:40.271Z,48.13
2024-03-09T17:34:11.112Z,48.32
2024-03-09T17:36:39.029Z,49.43
2024-03-09T17:39:07.224Z,48.83
2024-03-09T17:41:35.289Z,49.13
2024-03-09T17:44:08.373Z,49.39
2024-03-09T17:46:36.647Z,49.33
2024-03-09T17:49:04.641Z,49.51
2024-03-09T17:51:32.971Z,49.23
2024-03-09T17:54:03.090Z,47.50
2024-03-09T17:56:31.584Z,47.62
2024-03-09T17:58:59.841Z,47.92
2024-03-09T18:01:29.442Z,46.65
2024-03-09T18:03:58.333Z,48.04
2024-03-09T18:06:27.461Z,49.13
2024-03-09T18:08:55.526Z,48.97
2024-03-09T18:11:25.533Z,49.38
2024-03-09T18:13:53.490Z,49.29
2024-03-09T18:16:22.440Z,49.45
2024-03-09T18:18:53.689Z,48.33
2024-03-09T18:21:26.706Z,48.36
2024-03-09T18:23:54.794Z,48.87
2024-03-09T18:26:22.897Z,48.26
2024-03-09T18:28:52.233Z,48.69
2024-03-09T18:31:20.723Z,47.81
2024-03-09T18:33:51.066Z,48.90
2024-03-09T18:36:19.229Z,47.64
2024-03-09T18:38:48.024Z,47.40
2024-03-09T18:41:15.971Z,47.54
2024-03-09T18:43:44.003Z,47.00
2024-03-09T18:46:11.939Z,46.86
2024-03-09T18:48:41.013Z,46.85
2024-03-09T18:51:09.536Z,48.65
2024-03-09T18:53:37.594Z,47.90
2024-03-09T18:56:06.099Z,45.65
2024-03-09T18:58:36.468Z,45.26
2024-03-09T19:01:04.906Z,46.55
2024-03-09T19:03:34.566Z,47.58
2024-03-09T19:06:05.930Z,47.11
2024-03-09T19:08:34.028Z,47.91
2024-03-09T19:11:02.773Z,48.35
2024-03-09T19:13:31.787Z,50.08
2024-03-09T19:15:59.871Z,48.92
2024-03-09T19:18:29.145Z,48.84
2024-03-09T19:20:57.272Z,49.49
2024-03-09T19:23:26.437Z,50.43
2024-03-09T19:25:55.976Z,52.34
2024-03-09T19:28:25.035Z,50.97
2024-03-09T19:30:54.734Z,50.67
2024-03-09T19:33:23.528Z,50.86
2024-03-09T19:35:52.453Z,50.86
2024-03-09T19:38:20.508Z,52.37
2024-03-09T19:40:48.585Z,53.16
2024-03-09T19:43:16.683Z,54.45
2024-03-09T19:45:45.196Z,57.08
2024-03-09T19:48:13.318Z,60.47
2024-03-09T19:50:41.561Z,62.29
2024-03-09T19:53:12.167Z,65.72
2024-03-09T19:55:41.439Z,68.90
2024-03-09T19:58:11.358Z,69.24
2024-03-09T20:00:39.731Z,69.39
2024-03-09T20:03:09.249Z,72.35
2024-03-09T20:05:37.248Z,71.33
2024-03-09T20:08:06.010Z,72.19
2024-03-09T20:10:34.680Z,76.11
2024-03-09T20:13:04.717Z,75.54
2024-03-09T20:15:32.841Z,75.90
2024-03-09T20:18:01.488Z,76.71
2024-03-09T20:20:30.125Z,78.42
2024-03-09T20:23:02.390Z,79.74
2024-03-09T20:25:30.568Z,79.39
2024-03-09T20:27:58.668Z,83.31
2024-03-09T20:30:28.257Z,84.22
2024-03-09T20:32:56.378Z,83.62
2024-03-09T20:35:25.703Z,85.56
2024-03-09T20:37:54.630Z,85.86
2024-03-09T20:40:22.703Z,85.87
2024-03-09T20:42:52.065Z,89.52
2024-03-09T20:45:22.311Z,90.63
2024-03-09T20:47:51.422Z,92.90
2024-03-09T20:50:22.427Z,96.26
2024-03-09T20:53:00.461Z,98.54
2024-03-09T20:55:32.902Z,98.28
2024-03-09T20:58:00.842Z,99.88
2024-03-09T21:00:29.882Z,99.13
2024-03-09T21:03:00.618Z,100.00
2024-03-09T21:05:28.729Z,96.93
2024-03-09T21:07:56.831Z,94.58
2024-03-09T21:10:24.967Z,96.62
2024-03-09T21:12:52.962Z,93.81
2024-03-09T21:15:21.053Z,97.14
2024-03-09T21:17:52.437Z,99.18
2024-03-09T21:20:22.099Z,99.68
2024-03-09T21:22:50.700Z,99.54
2024-03-09T21:25:18.840Z,100.00
2024-03-09T21:27:46.865Z,100.00
2024-03-09T21:30:17.698Z,100.00
2024-03-09T21:32:49.206Z,99.94
2024-03-09T21:35:21.235Z,100.00
2024-03-09T21:37:54.009Z,100.00
2024-03-09T21:40:22.807Z,100.00
2024-03-09T21:42:52.447Z,100.00
2024-03-09T21:45:21.668Z,100.00
2024-03-09T21:47:50.262Z,100.00
2024-03-09T21:50:24.490Z,100.00
2024-03-09T21:52:54.749Z,100.00
2024-03-09T21:55:24.577Z,100.00
2024-03-09T21:57:53.992Z,100.00
2024-03-09T22:00:23.073Z,100.00
2024-03-09T22:02:55.845Z,100.00
2024-03-09T22:05:28.178Z,100.00
2024-03-09T22:07:58.595Z,100.00
2024-03-09T22:10:27.433Z,100.00
2024-03-09T22:12:57.417Z,100.00
2024-03-09T22:15:29.080Z,100.00
2024-03-09T22:17:58.120Z,100.00
2024-03-09T22:20:26.735Z,100.00
2024-03-09T22:22:55.199Z,100.00
2024-03-09T22:25:29.214Z,100.00
2024-03-09T22:27:57.352Z,100.00
2024-03-09T22:30:25.623Z,100.00
2024-03-09T22:32:54.365Z,100.00
2024-03-09T22:35:23.269Z,100.00
2024-03-09T22:37:52.345Z,100.00
2024-03-09T22:40:22.111Z,100.00
2024-03-09T22:42:50.303Z,100.00
2024-03-09T22:45:18.366Z,100.00
2024-03-09T22:47:47.922Z,100.00
2024-03-09T22:50:17.843Z,100.00
2024-03-09T22:52:45.996Z,100.00
2024-03-09T22:55:15.270Z,100.00
2024-03-09T22:57:47.250Z,100.00
2024-03-09T23:00:36.138Z,100.00
2024-03-09T23:03:04.541Z,100.00
2024-03-09T23:05:33.407Z,100.00
2024-03-09T23:08:02.440Z,100.00
2024-03-09T23:10:30.578Z,100.00
2024-03-09T23:12:58.770Z,100.00
2024-03-09T23:15:27.437Z,100.00
2024-03-09T23:17:56.119Z,100.00
2024-03-09T23:20:29.036Z,100.00
2024-03-09T23:22:59.849Z,100.00
2024-03-09T23:25:28.512Z,100.00
2024-03-09T23:27:57.961Z,100.00
2024-03-09T23:30:26.779Z,100.00
2024-03-09T23:32:56.794Z,100.00
2024-03-09T23:35:25.572Z,100.00
2024-03-09T23:37:53.869Z,100.00
2024-03-09T23:40:22.510Z,100.00
2024-03-09T23:42:50.699Z,100.00
2024-03-09T23:45:21.299Z,100.00
2024-03-09T23:47:52.080Z,100.00
2024-03-09T23:50:21.899Z,100.00
2024-03-09T23:52:51.551Z,100.00
2024-03-09T23:55:20.271Z,100.00
2024-03-09T23:57:49.588Z,100.00
